Time;durP1;ratioP1;P1;durP2;ratioP2;P2;SDS_P1;SDS_P2;PMS_P1;PMS_P2;Temp;Humidity;BMP_temperature;BMP_pressure;BME280_temperature;BME280_humidity;BME280_pressure;Samples;Min_cycle;Max_cycle;Signal;HPM_P1;HPM_P2
2020/12/20 00:00:10;;;;;;;3.58;2.78;;;10.80;85.00;;;;;;5137410;27;20488;-76
2020/12/20 00:02:35;;;;;;;5.20;2.67;;;10.80;85.00;;;;;;5155321;27;20023;-75
2020/12/20 00:05:02;;;;;;;4.07;2.60;;;10.80;85.00;;;;;;5155721;27;20359;-75
2020/12/20 00:07:27;;;;;;;3.72;2.45;;;10.80;85.00;;;;;;5136536;27;20075;-76
2020/12/20 00:09:53;;;;;;;3.80;2.47;;;10.90;85.00;;;;;;5155526;27;20427;-75
2020/12/20 00:12:18;;;;;;;3.95;2.45;;;10.80;85.00;;;;;;5136715;27;20075;-74
2020/12/20 00:14:44;;;;;;;3.45;2.60;;;10.90;85.10;;;;;;5136358;27;20026;-75
2020/12/20 00:17:11;;;;;;;5.25;2.30;;;10.80;85.00;;;;;;5136247;27;20023;-76
2020/12/20 00:19:37;;;;;;;4.72;2.90;;;10.90;85.00;;;;;;5136234;27;20486;-76
2020/12/20 00:22:07;;;;;;;3.53;2.45;;;10.90;85.60;;;;;;5155368;27;20050;-75
2020/12/20 00:24:33;;;;;;;4.28;2.72;;;10.90;85.00;;;;;;5155069;27;20485;-75
2020/12/20 00:27:01;;;;;;;3.80;2.60;;;10.90;85.00;;;;;;5136485;27;20029;-75
2020/12/20 00:29:27;;;;;;;4.43;2.50;;;10.90;85.00;;;;;;5136289;27;20038;-75
2020/12/20 00:31:53;;;;;;;5.18;2.90;;;10.90;85.00;;;;;;5136514;27;20022;-76
2020/12/20 00:34:19;;;;;;;3.97;2.65;;;10.90;85.00;;;;;;5136404;27;20022;-75
2020/12/20 00:36:46;;;;;;;4.90;2.70;;;10.90;84.90;;;;;;5136365;27;20019;-75
2020/12/20 00:39:14;;;;;;;3.47;2.53;;;10.90;84.90;;;;;;5136321;27;20371;-74
2020/12/20 00:41:40;;;;;;;5.63;2.58;;;10.90;84.90;;;;;;5151932;27;20026;-74
2020/12/20 00:44:06;;;;;;;5.18;2.42;;;10.90;84.90;;;;;;5136649;27;20022;-76
2020/12/20 00:46:36;;;;;;;4.97;2.42;;;11.00;84.90;;;;;;5136353;27;20019;-76
2020/12/20 00:49:03;;;;;;;5.03;2.40;;;10.90;84.90;;;;;;5136211;27;20075;-77
2020/12/20 00:51:30;;;;;;;7.32;2.42;;;11.00;84.90;;;;;;5135713;27;20070;-76
2020/12/20 00:53:56;;;;;;;4.18;2.47;;;11.00;84.80;;;;;;5136002;27;20069;-77
2020/12/20 00:56:22;;;;;;;3.45;2.28;;;10.90;84.80;;;;;;5154775;27;20019;-74
2020/12/20 00:58:47;;;;;;;4.18;2.42;;;11.00;84.90;;;;;;5136023;27;20129;-77
2020/12/20 01:01:13;;;;;;;7.15;2.53;;;10.90;84.80;;;;;;5138128;27;20030;-76
2020/12/20 01:03:39;;;;;;;4.32;2.42;;;11.00;84.90;;;;;;5158838;27;20053;-75
2020/12/20 01:06:04;;;;;;;4.78;2.28;;;10.90;84.90;;;;;;5159115;27;20571;-74
2020/12/20 01:08:30;;;;;;;4.35;2.33;;;11.00;84.90;;;;;;5140094;27;20023;-74
2020/12/20 01:10:56;;;;;;;4.00;2.25;;;11.00;84.90;;;;;;5139878;27;20033;-74
2020/12/20 01:13:22;;;;;;;4.45;2.40;;;10.90;84.80;;;;;;5158474;27;20054;-74
2020/12/20 01:15:47;;;;;;;4.40;2.17;;;11.00;84.90;;;;;;5158602;27;20053;-75
2020/12/20 01:18:13;;;;;;;5.00;2.47;;;11.00;84.90;;;;;;5139644;27;20030;-76
2020/12/20 01:20:39;;;;;;;6.35;2.28;;;11.00;84.90;;;;;;5139682;27;20023;-75
2020/12/20 01:23:05;;;;;;;4.35;2.58;;;11.00;84.90;;;;;;5158237;27;20029;-76
2020/12/20 01:25:31;;;;;;;4.05;2.20;;;11.00;84.80;;;;;;5139735;27;20033;-75
2020/12/20 01:27:57;;;;;;;3.22;2.10;;;11.00;84.80;;;;;;5139462;27;20428;-74
2020/12/20 01:30:22;;;;;;;5.65;2.55;;;10.90;85.40;;;;;;5158556;27;20038;-75
2020/12/20 01:32:48;;;;;;;6.50;2.75;;;10.90;84.80;;;;;;5158682;27;20354;-75
2020/12/20 01:35:14;;;;;;;5.70;2.50;;;10.90;84.80;;;;;;5139535;27;20035;-75
2020/12/20 01:37:39;;;;;;;4.13;2.08;;;10.90;84.80;;;;;;5139726;27;20050;-75
2020/12/20 01:40:06;;;;;;;5.20;2.38;;;10.90;84.80;;;;;;5139725;27;20065;-74
2020/12/20 01:42:32;;;;;;;3.92;2.13;;;10.90;84.80;;;;;;5158050;27;20023;-74
2020/12/20 01:44:58;;;;;;;4.78;2.50;;;10.90;84.80;;;;;;5139504;27;20067;-74
2020/12/20 01:47:27;;;;;;;4.53;2.25;;;10.90;84.80;;;;;;5139452;27;20019;-74
2020/12/20 01:49:53;;;;;;;3.28;2.00;;;10.90;84.90;;;;;;5157647;27;20022;-75
2020/12/20 01:52:19;;;;;;;11.98;2.63;;;10.90;84.90;;;;;;5139091;27;20458;-76
2020/12/20 01:54:50;;;;;;;4.78;2.10;;;10.90;84.90;;;;;;5139107;27;20058;-75
2020/12/20 01:57:17;;;;;;;4.97;2.22;;;10.90;84.90;;;;;;5138959;27;20466;-76
2020/12/20 01:59:42;;;;;;;4.85;2.45;;;10.90;84.90;;;;;;5139027;27;20027;-74
2020/12/20 02:02:08;;;;;;;6.88;2.33;;;10.90;84.90;;;;;;5138822;27;20045;-73
2020/12/20 02:04:34;;;;;;;6.03;2.38;;;10.90;84.90;;;;;;5139056;27;20023;-74
2020/12/20 02:07:00;;;;;;;4.40;2.03;;;10.80;84.90;;;;;;5138851;27;20112;-74
2020/12/20 02:09:26;;;;;;;3.63;2.00;;;10.90;85.20;;;;;;5138798;27;20401;-73
2020/12/20 02:11:52;;;;;;;4.22;2.28;;;10.80;84.80;;;;;;5157322;27;20031;-74
2020/12/20 02:14:17;;;;;;;4.55;2.90;;;10.90;84.90;;;;;;5157146;27;20019;-74
2020/12/20 02:16:43;;;;;;;2.58;1.83;;;10.90;84.90;;;;;;5138570;27;20027;-74
2020/12/20 02:19:09;;;;;;;3.45;2.05;;;10.80;84.90;;;;;;5138264;27;20022;-73
2020/12/20 02:21:35;;;;;;;3.72;2.17;;;10.80;84.90;;;;;;5157037;27;20030;-74
2020/12/20 02:24:01;;;;;;;3.45;1.88;;;10.80;84.90;;;;;;5157006;27;20027;-73
2020/12/20 02:26:28;;;;;;;3.85;2.13;;;10.80;84.90;;;;;;5157003;27;20030;-73
2020/12/20 02:28:55;;;;;;;5.25;2.03;;;10.80;84.90;;;;;;5156789;27;20122;-74
2020/12/20 02:31:21;;;;;;;4.82;2.20;;;10.80;84.90;;;;;;5156755;27;20046;-73
2020/12/20 02:33:47;;;;;;;3.83;2.72;;;10.80;85.00;;;;;;5138167;27;20033;-74
2020/12/20 02:36:13;;;;;;;4.97;2.50;;;10.80;85.00;;;;;;5138328;27;20018;-74
2020/12/20 02:38:40;;;;;;;4.03;2.33;;;10.80;85.00;;;;;;5138287;27;20026;-73
2020/12/20 02:41:06;;;;;;;5.55;2.60;;;10.80;85.00;;;;;;5137998;27;20096;-73
2020/12/20 02:43:32;;;;;;;4.85;2.10;;;10.70;85.00;;;;;;5156748;27;20380;-74
2020/12/20 02:45:57;;;;;;;4.90;2.60;;;10.70;85.10;;;;;;5156401;27;20034;-74
2020/12/20 02:48:23;;;;;;;4.07;2.28;;;10.70;85.00;;;;;;5156572;27;20081;-73
2020/12/20 02:50:49;;;;;;;4.88;2.60;;;10.70;85.00;;;;;;5137712;27;20434;-73
2020/12/20 02:53:14;;;;;;;4.78;2.42;;;10.70;85.10;;;;;;5137654;27;20063;-73
2020/12/20 02:55:40;;;;;;;5.97;2.05;;;10.70;85.10;;;;;;5137619;27;20119;-73
2020/12/20 02:58:05;;;;;;;3.30;2.25;;;10.70;85.10;;;;;;5156231;27;20117;-73
2020/12/20 03:00:38;;;;;;;4.53;2.30;;;10.70;85.10;;;;;;5156321;27;20075;-73
2020/12/20 03:03:05;;;;;;;4.35;2.35;;;10.70;85.10;;;;;;5137620;27;20027;-74
2020/12/20 03:05:30;;;;;;;2.65;2.30;;;10.70;85.10;;;;;;5156279;27;20030;-73
2020/12/20 03:07:56;;;;;;;5.22;2.30;;;10.70;85.10;;;;;;5137586;27;20031;-73
2020/12/20 03:10:22;;;;;;;4.70;2.58;;;10.70;85.10;;;;;;5137629;27;20080;-73
2020/12/20 03:12:47;;;;;;;4.43;2.40;;;10.70;85.10;;;;;;5156123;27;20027;-73
2020/12/20 03:15:13;;;;;;;5.40;2.50;;;10.70;85.10;;;;;;5155981;27;20019;-74
2020/12/20 03:17:39;;;;;;;3.88;2.20;;;10.70;85.10;;;;;;5137157;27;20073;-73
2020/12/20 03:20:05;;;;;;;4.53;2.30;;;10.70;85.10;;;;;;5156009;27;20112;-73
2020/12/20 03:22:32;;;;;;;4.82;2.33;;;10.70;85.00;;;;;;5137197;27;20038;-73
2020/12/20 03:24:58;;;;;;;4.85;2.20;;;10.70;85.00;;;;;;5136544;27;20031;-74
2020/12/20 03:27:23;;;;;;;4.95;2.30;;;10.80;85.10;;;;;;5137093;27;20034;-73
2020/12/20 03:29:49;;;;;;;2.95;2.20;;;10.70;85.00;;;;;;5155716;27;20029;-73
2020/12/20 03:32:15;;;;;;;4.68;2.38;;;10.80;85.60;;;;;;5155681;27;20030;-73
2020/12/20 03:34:41;;;;;;;4.80;2.30;;;10.80;85.00;;;;;;5155604;27;20073;-74
2020/12/20 03:37:06;;;;;;;5.25;2.13;;;10.70;85.00;;;;;;5155475;27;20065;-74
2020/12/20 03:39:32;;;;;;;4.80;2.00;;;10.70;85.00;;;;;;5136842;27;20118;-73
2020/12/20 03:41:58;;;;;;;5.43;2.30;;;10.70;85.00;;;;;;5155376;27;20052;-73
2020/12/20 03:44:24;;;;;;;3.92;2.22;;;10.70;85.00;;;;;;5155429;27;20019;-73
2020/12/20 03:46:50;;;;;;;3.55;2.13;;;10.80;85.10;;;;;;5155429;27;20366;-74
2020/12/20 03:49:15;;;;;;;3.83;2.08;;;10.70;85.00;;;;;;5155368;27;20034;-74
2020/12/20 03:51:41;;;;;;;5.10;2.00;;;10.80;85.00;;;;;;5136400;27;20047;-73
2020/12/20 03:54:07;;;;;;;4.95;2.00;;;10.80;85.00;;;;;;5136623;27;20390;-73
2020/12/20 03:56:33;;;;;;;6.45;2.20;;;10.80;85.00;;;;;;5136539;27;20477;-73
2020/12/20 03:58:59;;;;;;;2.58;1.85;;;10.80;85.00;;;;;;5136348;27;20030;-74
2020/12/20 04:01:25;;;;;;;3.08;2.13;;;10.80;85.00;;;;;;5136425;27;20351;-73
2020/12/20 04:03:51;;;;;;;4.05;2.13;;;10.80;85.00;;;;;;5136453;27;20018;-74
2020/12/20 04:06:17;;;;;;;4.47;2.08;;;10.80;85.00;;;;;;5136377;27;20103;-73
2020/12/20 04:08:42;;;;;;;3.90;2.00;;;10.70;84.90;;;;;;5136426;27;20031;-73
2020/12/20 04:11:08;;;;;;;4.55;2.00;;;10.80;85.10;;;;;;5154968;27;20026;-73
2020/12/20 04:13:34;;;;;;;4.30;2.10;;;10.70;85.00;;;;;;5155588;27;20208;-73
2020/12/20 04:16:04;;;;;;;5.03;2.22;;;10.70;85.00;;;;;;5136390;27;20034;-73
2020/12/20 04:18:30;;;;;;;3.05;1.85;;;10.80;85.00;;;;;;5136255;27;20022;-73
2020/12/20 04:20:56;;;;;;;4.03;1.90;;;10.80;85.00;;;;;;5154933;27;20492;-73
2020/12/20 04:23:21;;;;;;;4.15;1.92;;;10.70;84.90;;;;;;5155573;27;20030;-73
2020/12/20 04:25:47;;;;;;;4.47;2.45;;;10.80;85.00;;;;;;5136520;27;20038;-73
2020/12/20 04:28:13;;;;;;;4.03;1.80;;;10.80;85.00;;;;;;5154947;27;20430;-73
2020/12/20 04:30:38;;;;;;;6.05;1.70;;;10.70;84.90;;;;;;5154988;27;20059;-73
2020/12/20 04:33:04;;;;;;;4.70;2.10;;;10.80;85.00;;;;;;5154921;27;20026;-74
2020/12/20 04:35:29;;;;;;;5.35;2.42;;;10.70;84.80;;;;;;5135378;27;20049;-73
2020/12/20 04:37:55;;;;;;;4.25;2.20;;;10.70;84.90;;;;;;5154694;27;20104;-74
2020/12/20 04:40:25;;;;;;;4.60;1.70;;;10.80;85.00;;;;;;5154791;27;20026;-73
2020/12/20 04:42:50;;;;;;;4.35;1.90;;;10.70;85.50;;;;;;5135814;27;20027;-73
2020/12/20 04:45:17;;;;;;;3.35;1.85;;;10.70;85.00;;;;;;5154616;27;20030;-74
2020/12/20 04:47:46;;;;;;;4.85;2.25;;;10.70;85.00;;;;;;5154422;27;20110;-74
2020/12/20 04:50:12;;;;;;;3.20;1.73;;;10.70;85.00;;;;;;5135589;27;20047;-73
2020/12/20 04:52:41;;;;;;;5.00;2.22;;;10.70;85.00;;;;;;5135992;27;20050;-73
2020/12/20 04:55:07;;;;;;;5.05;1.80;;;10.70;84.90;;;;;;5154217;27;20046;-73
2020/12/20 04:57:34;;;;;;;5.32;2.30;;;10.70;84.90;;;;;;5154212;27;20030;-73
2020/12/20 05:00:06;;;;;;;3.70;2.10;;;10.80;85.00;;;;;;5154278;27;20019;-73
2020/12/20 05:02:32;;;;;;;3.90;2.08;;;10.70;84.90;;;;;;5136059;27;20023;-73
2020/12/20 05:04:58;;;;;;;4.50;1.65;;;10.70;84.90;;;;;;5154247;27;20026;-74
2020/12/20 05:07:23;;;;;;;4.80;2.25;;;10.70;84.90;;;;;;5154276;27;20034;-74
2020/12/20 05:09:49;;;;;;;4.18;2.08;;;10.70;84.90;;;;;;5154250;27;20063;-73
2020/12/20 05:12:32;;;;;;;5.03;1.80;;;10.70;84.90;;;;;;5135574;27;20018;-73
2020/12/20 05:14:59;;;;;;;3.53;1.70;;;10.80;85.00;;;;;;5154198;27;20031;-73
2020/12/20 05:17:25;;;;;;;4.85;2.20;;;10.70;84.90;;;;;;5154139;27;20023;-73
2020/12/20 05:19:51;;;;;;;6.55;2.00;;;10.70;84.90;;;;;;5135515;27;20019;-73
2020/12/20 05:22:22;;;;;;;7.20;1.90;;;10.80;85.00;;;;;;5154153;27;20038;-73
2020/12/20 05:24:51;;;;;;;3.30;1.85;;;10.70;84.90;;;;;;5154380;27;20023;-73
2020/12/20 05:27:23;;;;;;;4.13;1.98;;;10.70;84.90;;;;;;5135590;27;20019;-73
2020/12/20 05:29:52;;;;;;;5.10;1.80;;;10.80;84.90;;;;;;5135527;27;20023;-72
2020/12/20 05:32:28;;;;;;;3.83;1.85;;;10.70;84.90;;;;;;5153979;27;20556;-73
2020/12/20 05:35:03;;;;;;;5.10;2.08;;;10.70;84.90;;;;;;5135443;27;20023;-73
2020/12/20 05:37:31;;;;;;;6.05;2.00;;;10.70;84.90;;;;;;5154102;27;20050;-73
2020/12/20 05:39:57;;;;;;;3.95;1.92;;;10.70;84.90;;;;;;5154205;27;20101;-73
2020/12/20 05:42:24;;;;;;;3.90;1.83;;;10.70;84.80;;;;;;5135396;27;20416;-73
2020/12/20 05:45:11;;;;;;;4.60;2.03;;;10.70;84.90;;;;;;5154056;27;20050;-73
2020/12/20 05:47:40;;;;;;;3.53;1.80;;;10.70;84.80;;;;;;5156427;27;20087;-73
2020/12/20 05:50:10;;;;;;;2.95;1.88;;;10.70;84.90;;;;;;5139095;27;20096;-73
2020/12/20 05:52:36;;;;;;;4.15;1.63;;;10.70;84.80;;;;;;5139333;27;20477;-73
2020/12/20 05:55:13;;;;;;;3.63;2.03;;;10.70;84.90;;;;;;5139432;27;20023;-73
2020/12/20 05:57:39;;;;;;;4.32;1.80;;;10.70;84.90;;;;;;5138905;27;20022;-73
2020/12/20 06:00:06;;;;;;;3.75;1.75;;;10.70;84.80;;;;;;5157333;27;20018;-73
2020/12/20 06:02:32;;;;;;;5.57;1.92;;;10.70;84.80;;;;;;5157381;27;20113;-73
2020/12/20 06:05:00;;;;;;;3.20;1.85;;;10.70;84.80;;;;;;5157225;27;20470;-73
2020/12/20 06:07:27;;;;;;;3.90;1.80;;;10.70;84.90;;;;;;5138437;27;20022;-73
2020/12/20 06:09:58;;;;;;;4.40;2.00;;;10.70;84.90;;;;;;5138380;27;20067;-73
2020/12/20 06:12:26;;;;;;;2.72;1.52;;;10.70;84.90;;;;;;5138541;27;20023;-73
2020/12/20 06:14:52;;;;;;;4.35;1.98;;;10.70;84.90;;;;;;5138553;27;20141;-73
2020/12/20 06:17:19;;;;;;;5.28;1.70;;;10.70;84.90;;;;;;5138305;27;20018;-73
2020/12/20 06:19:49;;;;;;;4.82;1.80;;;10.70;84.90;;;;;;5138328;27;20026;-73
2020/12/20 06:22:21;;;;;;;6.00;2.10;;;10.70;84.90;;;;;;5138432;27;20019;-73
2020/12/20 06:24:49;;;;;;;6.15;1.90;;;10.80;84.90;;;;;;5139218;27;20030;-73
2020/12/20 06:27:17;;;;;;;4.13;2.00;;;10.70;84.80;;;;;;5138530;27;20485;-73
2020/12/20 06:29:50;;;;;;;3.42;1.90;;;10.70;84.80;;;;;;5157302;27;20034;-73
2020/12/20 06:32:41;;;;;;;4.38;1.80;;;10.70;84.80;;;;;;5157167;27;20107;-72
2020/12/20 06:35:27;;;;;;;4.22;2.00;;;10.70;84.90;;;;;;5138499;27;20019;-73
2020/12/20 06:37:53;;;;;;;2.90;1.77;;;10.70;84.90;;;;;;5156924;27;20128;-73
2020/12/20 06:40:31;;;;;;;5.25;2.13;;;10.70;84.90;;;;;;5138085;27;20046;-73
2020/12/20 06:42:58;;;;;;;3.22;2.08;;;10.70;84.90;;;;;;5138130;27;20359;-73
2020/12/20 06:45:25;;;;;;;4.20;1.98;;;10.70;85.00;;;;;;5138210;27;20019;-73
2020/12/20 06:48:01;;;;;;;7.25;2.20;;;10.60;84.90;;;;;;5138030;27;20492;-73
2020/12/20 06:50:39;;;;;;;3.60;1.77;;;10.70;85.00;;;;;;5137876;27;20166;-73
2020/12/20 06:53:05;;;;;;;4.07;1.88;;;10.70;84.90;;;;;;5156402;27;20037;-73
2020/12/20 06:55:31;;;;;;;3.75;1.70;;;10.70;84.90;;;;;;5137890;27;20041;-72
2020/12/20 06:58:03;;;;;;;3.42;1.80;;;10.80;84.90;;;;;;5136701;27;20092;-73
2020/12/20 07:00:42;;;;;;;3.78;2.03;;;10.80;84.80;;;;;;5156241;27;20083;-73
2020/12/20 07:03:10;;;;;;;3.53;1.83;;;10.80;84.70;;;;;;5137755;27;20023;-73
2020/12/20 07:05:44;;;;;;;3.72;1.95;;;10.80;84.70;;;;;;5137689;27;20094;-73
2020/12/20 07:08:24;;;;;;;7.03;2.75;;;10.80;84.70;;;;;;5156239;27;20027;-73
2020/12/20 07:10:55;;;;;;;4.80;2.47;;;10.70;84.70;;;;;;5137551;27;20156;-73
2020/12/20 07:13:38;;;;;;;4.40;2.10;;;10.70;84.90;;;;;;5156284;27;20045;-73
2020/12/20 07:16:18;;;;;;;7.90;2.17;;;10.70;84.90;;;;;;5137260;27;20068;-73
2020/12/20 07:18:45;;;;;;;4.18;1.98;;;10.70;84.90;;;;;;5156189;27;20110;-73
2020/12/20 07:21:18;;;;;;;5.30;1.80;;;10.70;84.90;;;;;;5137117;27;20106;-73
2020/12/20 07:23:49;;;;;;;5.55;2.10;;;10.60;84.90;;;;;;5156044;27;20022;-73
2020/12/20 07:26:15;;;;;;;5.65;2.10;;;10.60;85.00;;;;;;5155715;27;20115;-73
2020/12/20 07:28:41;;;;;;;5.70;1.85;;;10.60;85.00;;;;;;5155681;27;20038;-73
2020/12/20 07:31:20;;;;;;;6.38;2.15;;;10.60;85.10;;;;;;5136900;27;20025;-72
2020/12/20 07:33:46;;;;;;;6.72;2.10;;;10.60;85.80;;;;;;5137037;27;20047;-73
2020/12/20 07:36:12;;;;;;;5.90;2.13;;;10.60;85.10;;;;;;5136944;27;20019;-73
2020/12/20 07:38:39;;;;;;;4.20;1.88;;;10.50;85.10;;;;;;5155416;27;20027;-73
2020/12/20 07:41:09;;;;;;;4.38;1.95;;;10.50;85.10;;;;;;5136639;27;20011;-72
2020/12/20 07:43:34;;;;;;;4.05;1.98;;;10.50;85.10;;;;;;5136675;27;20022;-73
2020/12/20 07:46:20;;;;;;;5.35;2.20;;;10.50;85.20;;;;;;5155258;27;20019;-72
2020/12/20 07:48:46;;;;;;;7.20;1.77;;;10.50;85.90;;;;;;5136622;27;20027;-73
2020/12/20 07:51:16;;;;;;;6.00;2.00;;;10.50;85.30;;;;;;5136211;27;20339;-73
2020/12/20 07:53:54;;;;;;;5.78;2.30;;;10.50;85.30;;;;;;5136720;27;20054;-73
2020/12/20 07:56:38;;;;;;;8.07;2.45;;;10.40;85.30;;;;;;5155180;27;20022;-74
2020/12/20 07:59:05;;;;;;;;;;;10.40;85.30;;;;;;5136981;27;20057;-73
2020/12/20 08:01:31;;;;;;;4.55;1.85;;;10.50;85.40;;;;;;5136506;27;19903;-73
2020/12/20 08:04:09;;;;;;;6.93;2.10;;;10.40;85.30;;;;;;5136463;27;20039;-73
2020/12/20 08:06:46;;;;;;;5.70;2.00;;;10.40;85.30;;;;;;5136391;27;20500;-73
2020/12/20 08:09:17;;;;;;;6.68;1.90;;;10.40;85.30;;;;;;5136423;27;20088;-73
2020/12/20 08:11:44;;;;;;;7.15;2.05;;;10.40;85.40;;;;;;5154962;27;20142;-73
2020/12/20 08:14:14;;;;;;;4.97;1.75;;;10.40;85.30;;;;;;5136318;27;20050;-73
2020/12/20 08:16:43;;;;;;;7.60;1.92;;;10.40;85.40;;;;;;5136173;27;20018;-74
2020/12/20 08:19:20;;;;;;;5.93;2.00;;;10.40;85.40;;;;;;5155487;27;20054;-73
2020/12/20 08:22:03;;;;;;;5.30;1.92;;;10.40;85.40;;;;;;5138340;27;20026;-73
2020/12/20 08:24:31;;;;;;;3.88;1.80;;;10.40;85.40;;;;;;5137661;27;20075;-73
2020/12/20 08:26:59;;;;;;;5.88;1.80;;;10.40;85.30;;;;;;5138429;27;20018;-73
2020/12/20 08:29:25;;;;;;;4.88;2.00;;;10.40;85.30;;;;;;5138584;27;20370;-74
2020/12/20 08:31:50;;;;;;;5.38;1.90;;;10.50;85.30;;;;;;5139095;27;20075;-73
2020/12/20 08:34:21;;;;;;;5.32;1.77;;;10.50;85.40;;;;;;5156827;27;20050;-73
2020/12/20 08:36:52;;;;;;;8.98;2.35;;;10.50;85.30;;;;;;5139165;27;20359;-73
2020/12/20 08:39:25;;;;;;;6.38;1.80;;;10.50;85.20;;;;;;5138118;27;20018;-73
2020/12/20 08:42:02;;;;;;;9.07;1.90;;;10.50;85.20;;;;;;5155881;27;20068;-73
2020/12/20 08:44:31;;;;;;;7.35;2.00;;;10.50;85.20;;;;;;5137148;27;20544;-73
2020/12/20 08:47:07;;;;;;;5.40;2.05;;;10.60;85.20;;;;;;5137318;27;20136;-73
2020/12/20 08:49:32;;;;;;;8.77;2.30;;;10.60;85.20;;;;;;5136549;27;20019;-73
2020/12/20 08:52:10;;;;;;;5.93;1.90;;;10.60;85.10;;;;;;5136478;27;20501;-73
2020/12/20 08:54:36;;;;;;;5.45;1.90;;;10.60;85.10;;;;;;5135978;27;20078;-73
2020/12/20 08:57:08;;;;;;;4.85;2.00;;;10.60;85.00;;;;;;5154728;27;20019;-73
2020/12/20 08:59:42;;;;;;;4.28;1.75;;;10.60;85.00;;;;;;5154681;27;20057;-74
2020/12/20 09:02:18;;;;;;;6.90;2.20;;;10.60;85.00;;;;;;5154316;27;20023;-73
2020/12/20 09:04:55;;;;;;;7.07;1.85;;;10.60;85.00;;;;;;5135835;27;20434;-73
2020/12/20 09:07:37;;;;;;;7.65;2.25;;;10.70;85.00;;;;;;5154517;27;20043;-73
2020/12/20 09:10:07;;;;;;;4.60;1.77;;;10.70;84.90;;;;;;5155785;27;20027;-73
2020/12/20 09:12:34;;;;;;;4.63;1.92;;;10.70;84.90;;;;;;5135770;27;20023;-73
2020/12/20 09:15:01;;;;;;;8.25;2.08;;;10.80;84.90;;;;;;5132846;27;20031;-73
2020/12/20 09:17:35;;;;;;;9.27;2.38;;;10.80;84.80;;;;;;5154187;27;20030;-73
2020/12/20 09:20:02;;;;;;;5.45;2.00;;;10.80;84.80;;;;;;5154333;27;20432;-73
2020/12/20 09:22:42;;;;;;;3.97;1.83;;;10.80;84.70;;;;;;5156661;27;20015;-73
2020/12/20 09:25:08;;;;;;;4.28;2.35;;;10.80;84.70;;;;;;5139679;27;20025;-73
2020/12/20 09:27:34;;;;;;;6.70;1.85;;;10.80;84.70;;;;;;5139683;27;20019;-73
2020/12/20 09:30:02;;;;;;;6.15;2.20;;;10.80;84.60;;;;;;5139430;27;20113;-73
2020/12/20 09:32:34;;;;;;;7.13;2.13;;;10.90;84.60;;;;;;5139276;27;20090;-73
2020/12/20 09:35:06;;;;;;;6.07;2.13;;;10.90;84.60;;;;;;5139429;27;20045;-73
2020/12/20 09:37:38;;;;;;;6.32;2.10;;;10.90;84.50;;;;;;5158746;27;20089;-73
2020/12/20 09:40:04;;;;;;;10.75;2.97;;;10.90;84.40;;;;;;5158903;27;20133;-73
2020/12/20 09:42:46;;;;;;;8.98;2.55;;;11.00;84.40;;;;;;5139301;27;20014;-73
2020/12/20 09:45:12;;;;;;;5.47;2.40;;;11.00;84.40;;;;;;5140578;27;20023;-74
2020/12/20 09:47:39;;;;;;;7.50;3.17;;;11.00;84.30;;;;;;5158929;27;20029;-73
2020/12/20 09:50:06;;;;;;;6.35;2.67;;;11.00;84.30;;;;;;5158016;27;20015;-74
2020/12/20 09:52:32;;;;;;;8.77;2.65;;;11.00;84.20;;;;;;5158598;27;20098;-73
2020/12/20 09:54:59;;;;;;;8.20;3.15;;;11.00;84.20;;;;;;5138992;27;20167;-73
2020/12/20 09:57:25;;;;;;;7.95;3.13;;;11.10;84.20;;;;;;5139637;27;20015;-73
2020/12/20 09:59:51;;;;;;;7.03;2.67;;;11.10;84.10;;;;;;5139846;27;20113;-73
2020/12/20 10:02:16;;;;;;;8.68;2.55;;;11.10;84.10;;;;;;5158762;27;20054;-74
2020/12/20 10:04:42;;;;;;;7.20;2.72;;;11.10;84.00;;;;;;5158100;27;20030;-73
2020/12/20 10:07:08;;;;;;;6.57;3.20;;;11.10;84.00;;;;;;5139637;27;20331;-73
2020/12/20 10:09:34;;;;;;;9.80;4.68;;;11.10;84.00;;;;;;5140295;27;20113;-74
2020/12/20 10:12:02;;;;;;;10.93;3.92;;;11.10;83.90;;;;;;5140082;27;20037;-73
2020/12/20 10:14:27;;;;;;;8.18;3.08;;;11.20;83.90;;;;;;5140079;27;20067;-74
2020/12/20 10:16:54;;;;;;;9.20;3.53;;;11.20;83.90;;;;;;5139565;27;20430;-74
2020/12/20 10:19:19;;;;;;;6.93;3.10;;;11.20;83.80;;;;;;5138482;27;20033;-77
2020/12/20 10:21:52;;;;;;;8.57;2.90;;;11.20;83.80;;;;;;5138656;27;20332;-76
2020/12/20 10:24:19;;;;;;;9.17;2.70;;;11.20;83.70;;;;;;5138766;27;20018;-76
2020/12/20 10:26:46;;;;;;;6.72;2.95;;;11.30;83.70;;;;;;5138717;27;20462;-74
2020/12/20 10:29:14;;;;;;;8.18;3.08;;;11.20;83.70;;;;;;5138673;27;20022;-75
2020/12/20 10:31:44;;;;;;;6.68;2.67;;;11.30;83.70;;;;;;5138527;27;20466;-75
2020/12/20 10:34:10;;;;;;;5.60;2.33;;;11.30;83.70;;;;;;5157823;27;20051;-74
2020/12/20 10:36:37;;;;;;;10.75;2.80;;;11.30;83.60;;;;;;5140726;27;20103;-74
2020/12/20 10:39:05;;;;;;;7.47;2.80;;;11.30;83.60;;;;;;5139460;27;20080;-76
2020/12/20 10:41:40;;;;;;;5.15;2.40;;;11.40;83.60;;;;;;5139569;27;20015;-73
2020/12/20 10:44:06;;;;;;;7.75;3.67;;;11.40;83.50;;;;;;5139637;27;20026;-73
2020/12/20 10:46:33;;;;;;;8.05;2.95;;;11.40;83.50;;;;;;5139629;27;20056;-73
2020/12/20 10:48:59;;;;;;;8.57;2.75;;;11.40;83.40;;;;;;5158486;27;20026;-73
2020/12/20 10:51:25;;;;;;;6.85;2.55;;;11.40;83.40;;;;;;5136103;27;20039;-73
2020/12/20 10:53:52;;;;;;;10.15;2.47;;;11.50;83.40;;;;;;5137656;27;20030;-73
2020/12/20 10:56:18;;;;;;;13.27;2.92;;;11.50;83.30;;;;;;5137834;27;20027;-74
2020/12/20 10:58:46;;;;;;;12.25;4.03;;;11.50;83.30;;;;;;5137220;27;20034;-76
2020/12/20 11:01:17;;;;;;;8.55;3.50;;;11.50;83.10;;;;;;5137123;27;20016;-76
2020/12/20 11:03:47;;;;;;;7.53;2.67;;;11.50;83.10;;;;;;5136607;27;20035;-75
2020/12/20 11:06:30;;;;;;;5.93;2.40;;;11.50;83.10;;;;;;5136368;27;20474;-76
2020/12/20 11:08:56;;;;;;;9.77;2.57;;;11.60;83.10;;;;;;5138139;27;20047;-74
2020/12/20 11:11:29;;;;;;;7.90;2.55;;;11.60;83.00;;;;;;5138451;27;20027;-77
2020/12/20 11:17:29;;;;;;;11.52;3.15;;;11.60;82.80;;;;;;5135743;27;20034;-75
2020/12/20 11:19:55;;;;;;;7.18;2.40;;;11.60;82.70;;;;;;5133919;27;20034;-75
2020/12/20 11:22:21;;;;;;;6.35;2.30;;;11.60;82.70;;;;;;5134031;27;20019;-75
2020/12/20 11:24:46;;;;;;;9.98;2.60;;;11.60;82.50;;;;;;5134049;27;20015;-73
2020/12/20 11:27:12;;;;;;;7.15;2.40;;;11.70;82.50;;;;;;5135420;27;20023;-74
2020/12/20 11:29:39;;;;;;;11.73;2.80;;;11.70;82.40;;;;;;5134011;27;20030;-76
2020/12/20 11:32:05;;;;;;;9.73;2.63;;;11.80;82.30;;;;;;5134025;27;20019;-75
2020/12/20 11:34:31;;;;;;;8.65;2.60;;;11.80;82.20;;;;;;5133768;27;20027;-74
2020/12/20 11:36:57;;;;;;;11.63;2.88;;;11.80;82.10;;;;;;5133797;27;20034;-75
2020/12/20 11:39:23;;;;;;;8.40;2.53;;;11.90;81.90;;;;;;5134894;27;20027;-75
2020/12/20 11:41:48;;;;;;;6.53;2.67;;;11.80;81.80;;;;;;5133707;27;20019;-74
2020/12/20 11:44:14;;;;;;;8.75;2.40;;;11.90;81.80;;;;;;5133476;27;20035;-75
2020/12/20 11:46:40;;;;;;;8.30;2.97;;;11.90;82.50;;;;;;5133616;27;20424;-75
2020/12/20 11:49:06;;;;;;;10.27;3.25;;;11.90;81.60;;;;;;5133741;27;20023;-75
2020/12/20 11:51:32;;;;;;;10.40;2.67;;;11.80;81.60;;;;;;5133526;27;20047;-77
2020/12/20 11:53:58;;;;;;;10.75;3.35;;;11.80;81.60;;;;;;5133476;27;20035;-73
2020/12/20 11:56:24;;;;;;;11.18;3.00;;;11.90;81.60;;;;;;5134586;27;20031;-76
2020/12/20 11:58:50;;;;;;;8.05;2.67;;;12.00;81.40;;;;;;5133251;27;20355;-75
2020/12/20 12:01:23;;;;;;;7.95;3.30;;;12.00;81.40;;;;;;5134642;27;20028;-75
2020/12/20 12:03:50;;;;;;;7.30;2.63;;;12.10;81.30;;;;;;5133478;27;20064;-75
2020/12/20 12:06:16;;;;;;;11.27;3.20;;;12.10;81.00;;;;;;5134733;27;20355;-74
2020/12/20 12:08:44;;;;;;;7.35;3.10;;;12.10;80.90;;;;;;5133251;27;20102;-74
2020/12/20 12:11:09;;;;;;;9.60;3.78;;;12.00;80.80;;;;;;5133776;27;20112;-77
2020/12/20 12:13:35;;;;;;;14.05;4.68;;;12.00;80.90;;;;;;5134785;27;20027;-76
2020/12/20 12:16:02;;;;;;;12.35;3.75;;;12.10;80.80;;;;;;5133618;27;20114;-78
2020/12/20 12:18:27;;;;;;;7.30;3.40;;;12.10;80.70;;;;;;5133682;27;20019;-77
2020/12/20 12:20:53;;;;;;;8.55;3.05;;;12.10;80.70;;;;;;5133521;27;20424;-78
2020/12/20 12:23:18;;;;;;;9.25;3.20;;;12.20;80.70;;;;;;5133673;27;20023;-74
2020/12/20 12:25:44;;;;;;;9.35;3.60;;;12.20;80.60;;;;;;5133249;27;20050;-75
2020/12/20 12:28:10;;;;;;;12.45;3.20;;;12.20;80.60;;;;;;5132794;27;20020;-74
2020/12/20 12:30:36;;;;;;;8.93;3.10;;;12.20;80.50;;;;;;5132557;27;20027;-73
2020/12/20 12:33:01;;;;;;;7.63;3.05;;;12.20;80.40;;;;;;5132652;27;20169;-75
2020/12/20 12:35:27;;;;;;;8.23;2.97;;;12.20;80.40;;;;;;5133946;27;20015;-74
2020/12/20 12:37:52;;;;;;;9.27;3.00;;;12.20;80.30;;;;;;5132586;27;20539;-74
2020/12/20 12:40:18;;;;;;;11.13;3.25;;;12.20;80.20;;;;;;5132538;27;20110;-74
2020/12/20 12:42:44;;;;;;;11.70;3.30;;;12.20;79.70;;;;;;5133909;27;20488;-74
2020/12/20 12:45:12;;;;;;;9.98;2.95;;;12.10;79.90;;;;;;5133758;27;20023;-74
2020/12/20 12:47:38;;;;;;;11.90;2.95;;;12.00;79.80;;;;;;5133141;27;20048;-74
2020/12/20 12:50:04;;;;;;;11.48;3.05;;;12.00;80.00;;;;;;5132470;27;20113;-74
2020/12/20 12:52:31;;;;;;;9.90;2.95;;;12.00;80.10;;;;;;5135825;27;20130;-73